createdAt,value
2023-05-10T00:00:27.240Z,10.65
2023-05-10T00:02:53.859Z,8.20
2023-05-10T00:05:20.442Z,7.07
2023-05-10T00:07:46.950Z,7.78
2023-05-10T00:10:14.104Z,8.35
2023-05-10T00:12:40.772Z,8.43
2023-05-10T00:15:07.991Z,8.63
2023-05-10T00:17:34.470Z,8.38
2023-05-10T00:20:01.405Z,9.05
2023-05-10T00:22:27.851Z,7.78
2023-05-10T00:24:54.436Z,10.70
2023-05-10T00:27:20.877Z,7.78
2023-05-10T00:29:47.361Z,8.25
2023-05-10T00:32:14.849Z,12.20
2023-05-10T00:34:41.697Z,7.70
2023-05-10T00:37:08.330Z,6.78
2023-05-10T00:39:34.907Z,7.57
2023-05-10T00:42:01.531Z,8.02
2023-05-10T00:44:28.530Z,8.70
2023-05-10T00:46:55.187Z,7.88
2023-05-10T00:49:21.892Z,8.30
2023-05-10T00:51:48.661Z,9.43
2023-05-10T00:54:15.922Z,8.95
2023-05-10T00:56:42.464Z,9.48
2023-05-10T00:59:12.574Z,9.65
2023-05-10T01:01:39.873Z,10.90
2023-05-10T01:04:06.438Z,11.02
2023-05-10T01:06:33.245Z,8.45
2023-05-10T01:08:59.819Z,10.18
2023-05-10T01:11:26.316Z,13.65
2023-05-10T01:13:57.253Z,10.43
2023-05-10T01:16:24.948Z,8.07
2023-05-10T01:18:52.402Z,10.27
2023-05-10T01:21:34.495Z,8.20
2023-05-10T01:24:28.106Z,8.10
2023-05-10T01:27:21.296Z,8.10
2023-05-10T01:30:16.137Z,8.15
2023-05-10T01:33:26.393Z,10.25
2023-05-10T01:36:00.412Z,10.18
2023-05-10T01:38:51.534Z,8.60
2023-05-10T01:41:25.894Z,7.80
2023-05-10T01:44:10.891Z,8.45
2023-05-10T01:46:38.744Z,9.50
2023-05-10T01:49:10.591Z,13.82
2023-05-10T01:51:41.113Z,11.13
2023-05-10T01:54:08.527Z,9.35
2023-05-10T01:56:36.738Z,9.07
2023-05-10T01:59:07.851Z,8.10
2023-05-10T02:01:35.013Z,9.60
2023-05-10T02:04:02.382Z,8.02
2023-05-10T02:06:29.502Z,9.55
2023-05-10T02:08:56.172Z,8.57
2023-05-10T02:11:22.998Z,9.27
2023-05-10T02:13:51.443Z,8.05
2023-05-10T02:16:19.364Z,10.82
2023-05-10T02:18:47.960Z,8.15
2023-05-10T02:21:15.351Z,7.50
2023-05-10T02:23:42.071Z,9.85
2023-05-10T02:26:08.993Z,11.02
2023-05-10T02:28:36.583Z,9.00
2023-05-10T02:31:03.594Z,13.63
2023-05-10T02:33:31.241Z,7.97
2023-05-10T02:35:57.760Z,7.63
2023-05-10T02:38:25.361Z,10.35
2023-05-10T02:40:52.267Z,8.35
2023-05-10T02:43:19.517Z,7.97
2023-05-10T02:45:48.170Z,11.32
2023-05-10T02:48:14.829Z,7.35
2023-05-10T02:50:45.168Z,8.30
2023-05-10T02:53:12.898Z,9.63
2023-05-10T02:55:41.583Z,11.85
2023-05-10T02:58:08.125Z,8.63
2023-05-10T03:00:34.724Z,12.07
2023-05-10T03:03:01.344Z,8.52
2023-05-10T03:05:28.609Z,8.07
2023-05-10T03:07:56.591Z,7.03
2023-05-10T03:10:28.651Z,7.32
2023-05-10T03:13:13.951Z,9.68
2023-05-10T03:15:49.743Z,9.13
2023-05-10T03:18:24.394Z,10.30
2023-05-10T03:20:52.449Z,7.78
2023-05-10T03:23:18.883Z,7.18
2023-05-10T03:25:48.108Z,7.03
2023-05-10T03:28:15.799Z,7.07
2023-05-10T03:30:42.803Z,6.75
2023-05-10T03:33:13.679Z,6.65
2023-05-10T03:35:42.829Z,8.38
2023-05-10T03:38:09.333Z,6.40
2023-05-10T03:40:35.884Z,6.63
2023-05-10T03:43:02.412Z,9.38
2023-05-10T03:45:29.149Z,6.10
2023-05-10T03:47:56.390Z,8.50
2023-05-10T03:50:23.242Z,13.55
2023-05-10T03:52:49.942Z,9.25
2023-05-10T03:55:17.123Z,6.07
2023-05-10T03:57:44.376Z,7.03
2023-05-10T04:00:11.674Z,7.82
2023-05-10T04:05:16.161Z,9.88
2023-05-10T04:07:42.684Z,8.60
2023-05-10T04:10:09.428Z,7.00
2023-05-10T04:12:35.929Z,6.68
2023-05-10T04:15:02.576Z,6.43
2023-05-10T04:17:29.122Z,7.97
2023-05-10T04:19:55.844Z,6.57
2023-05-10T04:22:22.379Z,8.77
2023-05-10T04:24:48.872Z,6.93
2023-05-10T04:27:15.319Z,7.35
2023-05-10T04:29:42.557Z,7.00
2023-05-10T04:32:09.045Z,7.57
2023-05-10T04:34:35.500Z,9.55
2023-05-10T04:37:02.016Z,11.73
2023-05-10T04:39:28.455Z,6.75
2023-05-10T04:41:54.946Z,6.70
2023-05-10T04:44:21.426Z,10.02
2023-05-10T04:46:48.133Z,8.30
2023-05-10T04:49:15.383Z,6.70
2023-05-10T04:51:41.977Z,10.63
2023-05-10T04:54:08.558Z,6.30
2023-05-10T04:56:35.095Z,6.28
2023-05-10T04:59:01.566Z,6.05
2023-05-10T05:01:28.135Z,6.55
2023-05-10T05:03:54.854Z,6.30
2023-05-10T05:06:25.725Z,7.78
2023-05-10T05:08:52.361Z,7.40
2023-05-10T05:11:18.923Z,9.18
2023-05-10T05:13:45.440Z,6.60
2023-05-10T05:16:12.460Z,6.38
2023-05-10T05:18:39.221Z,6.18
2023-05-10T05:21:17.883Z,9.77
2023-05-10T05:23:44.596Z,7.03
2023-05-10T05:26:11.651Z,6.63
2023-05-10T05:28:38.544Z,7.28
2023-05-10T05:31:06.518Z,7.40
2023-05-10T05:33:33.034Z,6.40
2023-05-10T05:36:02.119Z,6.47
2023-05-10T05:38:28.602Z,5.32
2023-05-10T05:40:55.147Z,6.22
2023-05-10T05:43:21.625Z,6.03
2023-05-10T05:45:48.121Z,6.82
2023-05-10T05:48:14.597Z,7.97
2023-05-10T05:50:41.054Z,5.68
2023-05-10T05:53:07.559Z,5.65
2023-05-10T05:55:34.056Z,6.07
2023-05-10T05:58:00.499Z,5.90
2023-05-10T06:00:27.019Z,4.57
2023-05-10T06:02:53.628Z,8.38
2023-05-10T06:05:21.165Z,6.35
2023-05-10T06:07:47.731Z,7.57
2023-05-10T06:10:14.277Z,4.35
2023-05-10T06:12:40.787Z,5.55
2023-05-10T06:15:07.779Z,7.85
2023-05-10T06:17:34.322Z,6.30
2023-05-10T06:20:00.804Z,8.77
2023-05-10T06:22:27.272Z,5.47
2023-05-10T06:24:53.733Z,6.78
2023-05-10T06:27:20.222Z,4.93
2023-05-10T06:29:46.895Z,7.15
2023-05-10T06:32:13.362Z,6.18
2023-05-10T06:34:39.911Z,5.90
2023-05-10T06:37:06.382Z,7.22
2023-05-10T06:39:32.851Z,5.82
2023-05-10T06:41:59.304Z,5.90
2023-05-10T06:44:32.207Z,5.93
2023-05-10T06:46:58.718Z,5.47
2023-05-10T06:49:25.186Z,5.05
2023-05-10T06:51:51.619Z,8.90
2023-05-10T06:54:18.748Z,5.20
2023-05-10T06:56:45.212Z,8.52
2023-05-10T06:59:11.788Z,4.72
2023-05-10T07:01:38.271Z,6.43
2023-05-10T07:04:04.993Z,5.03
2023-05-10T07:06:34.251Z,6.35
2023-05-10T07:09:01.367Z,6.13
2023-05-10T07:11:28.101Z,9.18
2023-05-10T07:13:54.605Z,5.47
2023-05-10T07:16:22.404Z,6.40
2023-05-10T07:18:48.957Z,6.32
2023-05-10T07:21:15.608Z,6.72
2023-05-10T07:23:44.303Z,6.28
2023-05-10T07:26:11.551Z,4.97
2023-05-10T07:28:38.548Z,5.68
2023-05-10T07:31:05.121Z,5.38
2023-05-10T07:33:31.810Z,5.53
2023-05-10T07:35:58.437Z,6.10
2023-05-10T07:38:24.921Z,6.03
2023-05-10T07:40:51.455Z,7.85
2023-05-10T07:43:17.912Z,4.85
2023-05-10T07:45:44.451Z,6.03
2023-05-10T07:48:11.096Z,4.35
2023-05-10T07:50:37.589Z,6.15
2023-05-10T07:53:04.059Z,4.82
2023-05-10T07:55:30.874Z,5.45
2023-05-10T07:57:57.746Z,5.80
2023-05-10T08:00:24.270Z,4.97
2023-05-10T08:02:50.863Z,5.97
2023-05-10T08:05:17.667Z,8.95
2023-05-10T08:07:44.265Z,8.45
2023-05-10T08:10:12.151Z,4.43
2023-05-10T08:12:39.253Z,5.28
2023-05-10T08:15:06.317Z,6.60
2023-05-10T08:17:32.970Z,5.20
2023-05-10T08:19:59.440Z,5.78
2023-05-10T08:22:25.887Z,7.28
2023-05-10T08:24:52.384Z,4.57
2023-05-10T08:27:18.874Z,5.20
2023-05-10T08:29:49.909Z,7.00
2023-05-10T08:32:17.522Z,4.60
2023-05-10T08:34:44.079Z,5.70
2023-05-10T08:37:13.958Z,4.40
2023-05-10T08:39:40.652Z,5.72
2023-05-10T08:42:07.740Z,12.45
2023-05-10T08:44:36.347Z,3.28
2023-05-10T08:47:08.028Z,2.35
2023-05-10T08:49:34.633Z,2.45
2023-05-10T08:52:04.527Z,2.20
2023-05-10T08:54:32.833Z,3.10
2023-05-10T08:56:59.442Z,2.00
2023-05-10T08:59:26.060Z,3.25
2023-05-10T09:01:54.509Z,1.77
2023-05-10T09:04:22.145Z,2.30
2023-05-10T09:06:48.803Z,2.33
2023-05-10T09:09:15.865Z,1.90
2023-05-10T09:11:42.424Z,1.92
2023-05-10T09:14:10.413Z,1.70
2023-05-10T09:16:36.924Z,2.08
2023-05-10T09:19:03.884Z,2.75
2023-05-10T09:21:31.596Z,1.60
2023-05-10T09:23:58.160Z,1.80
2023-05-10T09:26:24.865Z,2.22
2023-05-10T09:28:53.380Z,1.88
2023-05-10T09:31:20.209Z,1.90
2023-05-10T09:33:48.222Z,1.90
2023-05-10T09:36:15.229Z,2.05
2023-05-10T09:38:55.736Z,2.10
2023-05-10T09:41:23.761Z,1.95
2023-05-10T09:43:50.765Z,2.10
2023-05-10T09:46:17.486Z,1.77
2023-05-10T09:48:48.612Z,1.45
2023-05-10T09:51:21.921Z,2.35
2023-05-10T09:53:48.662Z,2.20
2023-05-10T09:56:41.079Z,1.48
2023-05-10T09:59:11.916Z,1.30
2023-05-10T10:01:39.191Z,1.13
2023-05-10T10:04:07.103Z,1.48
2023-05-10T10:06:40.882Z,2.25
2023-05-10T10:09:08.064Z,1.40
2023-05-10T10:11:39.278Z,1.10
2023-05-10T10:14:06.584Z,1.52
2023-05-10T10:16:33.402Z,3.42
2023-05-10T10:19:00.470Z,3.80
2023-05-10T10:21:27.775Z,1.98
2023-05-10T10:23:54.242Z,1.45
2023-05-10T10:26:22.020Z,0.90
2023-05-10T10:29:08.684Z,2.42
2023-05-10T10:31:53.386Z,1.00
2023-05-10T10:34:30.482Z,1.20
2023-05-10T10:36:58.270Z,1.38
2023-05-10T10:39:28.170Z,1.60
2023-05-10T10:41:58.716Z,1.67
2023-05-10T10:44:34.925Z,1.33
2023-05-10T10:47:15.394Z,1.83
2023-05-10T10:49:41.926Z,1.88
2023-05-10T10:52:23.938Z,1.55
2023-05-10T10:54:58.454Z,1.90
2023-05-10T10:57:27.394Z,2.15
2023-05-10T11:00:19.846Z,2.13
2023-05-10T11:02:49.690Z,1.60
2023-05-10T11:05:39.476Z,3.05
2023-05-10T11:08:28.825Z,1.45
2023-05-10T11:11:08.160Z,0.93
2023-05-10T11:13:39.586Z,2.78
2023-05-10T11:16:21.968Z,1.73
2023-05-10T11:18:59.875Z,1.30
2023-05-10T11:21:26.939Z,1.10
2023-05-10T11:23:58.312Z,2.80
2023-05-10T11:26:52.380Z,1.20
2023-05-10T11:29:18.872Z,3.13
2023-05-10T11:31:47.527Z,3.15
2023-05-10T11:34:27.535Z,1.70
2023-05-10T11:36:55.371Z,2.38
2023-05-10T11:39:22.718Z,1.40
2023-05-10T11:41:50.446Z,1.50
2023-05-10T11:44:17.048Z,1.95
2023-05-10T11:46:43.747Z,1.10
2023-05-10T11:49:11.097Z,1.30
2023-05-10T11:51:37.838Z,0.90
2023-05-10T11:54:11.530Z,2.05
2023-05-10T11:56:39.481Z,1.70
2023-05-10T11:59:06.655Z,1.33
2023-05-10T12:01:33.303Z,2.08
2023-05-10T12:04:01.109Z,1.70
2023-05-10T12:06:33.182Z,0.80
2023-05-10T12:08:59.870Z,0.50
2023-05-10T12:11:28.219Z,0.90
2023-05-10T12:13:55.701Z,1.83
2023-05-10T12:16:24.315Z,0.57
2023-05-10T12:18:54.612Z,0.85
2023-05-10T12:21:21.967Z,0.73
2023-05-10T12:23:51.218Z,0.50
2023-05-10T12:26:17.748Z,0.60
2023-05-10T12:28:44.315Z,1.33
2023-05-10T12:31:10.949Z,1.08
2023-05-10T12:33:43.406Z,0.90
2023-05-10T12:36:11.009Z,1.77
2023-05-10T12:38:43.879Z,0.57
2023-05-10T12:41:12.004Z,0.82
2023-05-10T12:43:38.938Z,0.73
2023-05-10T12:46:09.842Z,0.70
2023-05-10T12:48:37.395Z,1.05
2023-05-10T12:51:04.661Z,1.23
2023-05-10T12:53:31.615Z,1.25
2023-05-10T12:55:58.406Z,0.82
2023-05-10T12:58:34.859Z,0.45
2023-05-10T13:01:02.656Z,1.52
2023-05-10T13:03:29.166Z,1.40
2023-05-10T13:05:55.836Z,1.00
2023-05-10T13:08:22.374Z,0.90
2023-05-10T13:10:48.902Z,0.73
2023-05-10T13:13:16.077Z,1.20
2023-05-10T13:15:42.584Z,1.13
2023-05-10T13:18:09.286Z,0.85
2023-05-10T13:20:36.028Z,0.70
2023-05-10T13:23:03.529Z,0.85
2023-05-10T13:25:30.123Z,0.77
2023-05-10T13:27:56.620Z,1.27
2023-05-10T13:30:24.698Z,0.60
2023-05-10T13:32:51.190Z,0.88
2023-05-10T13:35:17.779Z,0.85
2023-05-10T13:37:44.377Z,0.60
2023-05-10T13:40:11.069Z,0.95
2023-05-10T13:42:38.484Z,0.65
2023-05-10T13:45:05.648Z,1.92
2023-05-10T13:47:32.246Z,3.03
2023-05-10T13:49:59.450Z,0.80
2023-05-10T13:52:26.827Z,1.00
2023-05-10T13:54:55.877Z,3.20
2023-05-10T13:57:22.872Z,3.95
2023-05-10T13:59:49.424Z,2.25
2023-05-10T14:02:15.931Z,1.38
2023-05-10T14:04:42.399Z,1.77
2023-05-10T14:07:08.941Z,3.00
2023-05-10T14:09:35.438Z,1.60
2023-05-10T14:12:01.956Z,2.60
2023-05-10T14:14:30.080Z,2.17
2023-05-10T14:16:56.894Z,7.75
2023-05-10T14:19:23.511Z,1.88
2023-05-10T14:21:50.117Z,4.32
2023-05-10T14:24:16.684Z,1.40
2023-05-10T14:26:43.361Z,2.65
2023-05-10T14:29:11.584Z,1.90
2023-05-10T14:31:39.213Z,3.20
2023-05-10T14:34:06.628Z,2.38
2023-05-10T14:36:33.315Z,1.70
2023-05-10T14:38:59.793Z,1.98
2023-05-10T14:41:26.272Z,1.95
2023-05-10T14:43:52.803Z,2.20
2023-05-10T14:46:19.333Z,1.58
2023-05-10T14:48:45.854Z,1.90
2023-05-10T14:51:12.310Z,1.80
2023-05-10T14:53:38.821Z,2.38
2023-05-10T14:56:05.367Z,2.05
2023-05-10T14:58:34.017Z,2.03
2023-05-10T15:01:00.959Z,1.58
2023-05-10T15:03:28.037Z,2.72
2023-05-10T15:05:57.072Z,2.05
2023-05-10T15:08:24.813Z,2.90
2023-05-10T15:10:52.216Z,1.95
2023-05-10T15:13:18.812Z,3.70
2023-05-10T15:15:45.371Z,3.70
2023-05-10T15:18:12.048Z,2.03
2023-05-10T15:20:38.537Z,2.33
2023-05-10T15:23:05.225Z,1.80
2023-05-10T15:25:32.087Z,2.80
2023-05-10T15:27:58.727Z,1.95
2023-05-10T15:30:26.849Z,2.85
2023-05-10T15:32:53.539Z,2.95
2023-05-10T15:35:20.122Z,2.58
2023-05-10T15:37:48.482Z,2.47
2023-05-10T15:40:15.046Z,2.22
2023-05-10T15:42:41.495Z,2.03
2023-05-10T15:45:08.504Z,2.60
2023-05-10T15:47:35.058Z,3.28
2023-05-10T15:50:01.666Z,1.95
2023-05-10T15:52:28.294Z,2.03
2023-05-10T15:54:54.765Z,1.55
2023-05-10T15:57:21.298Z,1.63
2023-05-10T15:59:47.928Z,1.50
2023-05-10T16:02:14.502Z,1.70
2023-05-10T16:04:41.114Z,1.67
2023-05-10T16:07:07.565Z,1.70
2023-05-10T16:09:34.020Z,1.70
2023-05-10T16:12:00.551Z,1.65
2023-05-10T16:14:27.046Z,1.63
2023-05-10T16:16:53.858Z,3.30
2023-05-10T16:19:20.431Z,2.20
2023-05-10T16:21:47.382Z,2.80
2023-05-10T16:24:13.938Z,3.20
2023-05-10T16:26:41.189Z,3.85
2023-05-10T16:29:08.621Z,3.65
2023-05-10T16:31:35.514Z,3.33
2023-05-10T16:34:02.199Z,5.10
2023-05-10T16:36:29.595Z,2.95
2023-05-10T16:38:56.573Z,2.13
2023-05-10T16:41:23.069Z,2.45
2023-05-10T16:43:50.123Z,1.90
2023-05-10T16:46:16.679Z,2.25
2023-05-10T16:48:43.185Z,1.83
2023-05-10T16:51:09.698Z,2.53
2023-05-10T16:53:36.304Z,1.98
2023-05-10T16:56:03.368Z,2.70
2023-05-10T16:58:29.840Z,1.85
2023-05-10T17:00:56.390Z,1.90
2023-05-10T17:03:23.343Z,2.42
2023-05-10T17:05:50.075Z,1.85
2023-05-10T17:08:16.615Z,1.80
2023-05-10T17:10:43.169Z,1.98
2023-05-10T17:13:10.590Z,2.28
2023-05-10T17:15:37.904Z,2.15
2023-05-10T17:18:04.859Z,2.17
2023-05-10T17:20:31.486Z,2.30
2023-05-10T17:22:58.253Z,2.70
2023-05-10T17:25:24.889Z,2.30
2023-05-10T17:27:51.448Z,2.83
2023-05-10T17:30:22.498Z,3.10
2023-05-10T17:32:49.157Z,2.63
2023-05-10T17:35:16.350Z,3.40
2023-05-10T17:37:44.142Z,2.97
2023-05-10T17:40:11.290Z,2.97
2023-05-10T17:42:37.811Z,2.38
2023-05-10T17:45:04.553Z,3.42
2023-05-10T17:47:31.159Z,2.97
2023-05-10T17:49:57.695Z,4.57
2023-05-10T17:52:24.211Z,2.67
2023-05-10T17:54:51.198Z,2.67
2023-05-10T17:57:18.443Z,2.63
2023-05-10T17:59:44.919Z,1.95
2023-05-10T18:02:11.395Z,2.65
2023-05-10T18:04:40.125Z,2.70
2023-05-10T18:07:07.827Z,2.10
2023-05-10T18:09:34.394Z,2.47
2023-05-10T18:12:04.089Z,2.55
2023-05-10T18:14:39.733Z,2.63
2023-05-10T18:17:07.697Z,2.83
2023-05-10T18:19:34.495Z,2.80
2023-05-10T18:22:01.050Z,3.00
2023-05-10T18:24:38.373Z,2.95
2023-05-10T18:27:06.667Z,3.60
2023-05-10T18:29:33.226Z,3.75
2023-05-10T18:31:59.778Z,4.15
2023-05-10T18:34:26.367Z,3.50
2023-05-10T18:36:53.067Z,3.65
2023-05-10T18:39:19.741Z,3.80
2023-05-10T18:41:46.292Z,3.70
2023-05-10T18:44:12.857Z,4.50
2023-05-10T18:46:39.492Z,4.35
2023-05-10T18:49:08.333Z,3.55
2023-05-10T18:51:34.917Z,3.55
2023-05-10T18:54:01.418Z,4.70
2023-05-10T18:56:28.200Z,3.80
2023-05-10T18:58:54.788Z,5.55
2023-05-10T19:01:21.339Z,4.78
2023-05-10T19:03:47.923Z,4.75
2023-05-10T19:06:14.419Z,4.60
2023-05-10T19:08:40.955Z,4.90
2023-05-10T19:11:07.528Z,4.60
2023-05-10T19:13:34.247Z,4.50
2023-05-10T19:16:04.960Z,4.82
2023-05-10T19:18:33.182Z,4.32
2023-05-10T19:21:03.655Z,4.47
2023-05-10T19:23:33.675Z,4.97
2023-05-10T19:26:01.410Z,4.18
2023-05-10T19:28:27.960Z,4.40
2023-05-10T19:30:54.521Z,4.50
2023-05-10T19:33:21.101Z,4.30
2023-05-10T19:35:49.838Z,4.45
2023-05-10T19:38:16.327Z,7.25
2023-05-10T19:40:44.434Z,8.02
2023-05-10T19:43:11.027Z,6.15
2023-05-10T19:45:37.541Z,5.53
2023-05-10T19:48:04.090Z,5.32
2023-05-10T19:50:30.794Z,4.97
2023-05-10T19:52:58.477Z,5.07
2023-05-10T19:55:27.502Z,6.43
2023-05-10T19:57:54.003Z,5.13
2023-05-10T20:00:20.679Z,5.25
2023-05-10T20:02:48.141Z,5.05
2023-05-10T20:05:15.205Z,4.72
2023-05-10T20:07:41.811Z,4.10
2023-05-10T20:10:09.265Z,4.60
2023-05-10T20:12:36.357Z,4.57
2023-05-10T20:15:08.571Z,4.10
2023-05-10T20:17:36.577Z,5.32
2023-05-10T20:20:03.912Z,3.60
2023-05-10T20:22:30.461Z,3.72
2023-05-10T20:24:58.514Z,3.13
2023-05-10T20:27:25.055Z,5.72
2023-05-10T20:29:51.731Z,4.15
2023-05-10T20:32:18.186Z,5.18
2023-05-10T20:34:44.664Z,7.03
2023-05-10T20:37:11.125Z,3.72
2023-05-10T20:39:37.599Z,3.42
2023-05-10T20:42:04.313Z,4.90
2023-05-10T20:44:30.762Z,2.88
2023-05-10T20:46:57.352Z,4.28
2023-05-10T20:49:23.818Z,4.47
2023-05-10T20:51:50.949Z,5.88
2023-05-10T20:54:17.435Z,5.15
2023-05-10T20:56:43.923Z,3.45
2023-05-10T20:59:10.810Z,3.58
2023-05-10T21:01:37.322Z,4.93
2023-05-10T21:04:03.889Z,3.88
2023-05-10T21:06:31.464Z,4.40
2023-05-10T21:08:57.995Z,4.43
2023-05-10T21:11:24.458Z,6.60
2023-05-10T21:13:51.158Z,5.85
2023-05-10T21:16:17.654Z,6.03
2023-05-10T21:18:44.250Z,4.30
2023-05-10T21:21:10.730Z,6.72
2023-05-10T21:23:37.298Z,7.60
2023-05-10T21:26:04.396Z,4.30
2023-05-10T21:28:31.108Z,3.88
2023-05-10T21:30:57.551Z,5.90
2023-05-10T21:33:24.238Z,6.05
2023-05-10T21:35:50.871Z,6.97
2023-05-10T21:38:17.344Z,6.20
2023-05-10T21:40:43.801Z,4.70
2023-05-10T21:43:11.202Z,7.18
2023-05-10T21:45:38.074Z,4.80
2023-05-10T21:48:04.683Z,5.00
2023-05-10T21:50:31.232Z,4.03
2023-05-10T21:52:57.796Z,6.28
2023-05-10T21:55:24.291Z,5.55
2023-05-10T21:57:51.163Z,4.40
2023-05-10T22:00:19.314Z,4.55
2023-05-10T22:02:46.766Z,4.70
2023-05-10T22:05:13.502Z,4.20
2023-05-10T22:07:40.028Z,4.28
2023-05-10T22:10:10.320Z,5.43
2023-05-10T22:12:36.856Z,6.80
2023-05-10T22:17:33.006Z,5.57
2023-05-10T22:19:59.499Z,5.32
2023-05-10T22:22:25.983Z,6.63
2023-05-10T22:24:52.554Z,6.00
2023-05-10T22:27:19.180Z,5.80
2023-05-10T22:29:46.492Z,5.32
2023-05-10T22:32:12.990Z,5.45
2023-05-10T22:34:39.481Z,5.75
2023-05-10T22:37:05.985Z,5.20
2023-05-10T22:39:33.115Z,4.38
2023-05-10T22:41:59.716Z,5.30
2023-05-10T22:44:26.192Z,5.22
2023-05-10T22:46:52.745Z,5.43
2023-05-10T22:49:19.252Z,6.63
2023-05-10T22:51:46.488Z,4.20
2023-05-10T22:54:12.956Z,4.88
2023-05-10T22:56:39.428Z,6.32
2023-05-10T22:59:05.932Z,4.15
2023-05-10T23:01:32.413Z,4.72
2023-05-10T23:03:58.932Z,4.72
2023-05-10T23:06:25.506Z,4.88
2023-05-10T23:08:52.007Z,4.88
2023-05-10T23:11:18.461Z,4.10
2023-05-10T23:13:44.960Z,4.70
2023-05-10T23:16:11.481Z,5.32
2023-05-10T23:18:38.007Z,5.43
2023-05-10T23:21:04.522Z,4.18
2023-05-10T23:23:32.658Z,5.78
2023-05-10T23:25:59.207Z,4.78
2023-05-10T23:28:25.679Z,6.53
2023-05-10T23:30:56.692Z,5.40
2023-05-10T23:33:23.418Z,5.40
2023-05-10T23:35:49.951Z,5.63
2023-05-10T23:38:16.605Z,5.68
2023-05-10T23:40:43.124Z,5.57
2023-05-10T23:43:09.628Z,6.70
2023-05-10T23:45:36.293Z,6.55
2023-05-10T23:48:02.840Z,6.85
2023-05-10T23:50:29.448Z,7.53
2023-05-10T23:52:55.909Z,5.05
2023-05-10T23:55:22.505Z,6.72
2023-05-10T23:57:48.987Z,6.47
